Flight Track Log - Related Links

Times and Time Zones

All times are in EDT time to prevent confusion due to time zone crossing. See the GJS3706 flight status page for this flight to view local times or setup timezone preferences in your user account.

Time Position Orientation Groundspeed Altitude Reporting Facility
EDT Latitude Longitude Course Direction KTS MPH feet Rate Location/Type
Wed 07:01:08 AM 43.6464 -70.3514 277° West 152 175 1,200  Level Boston Center
Wed 07:02:08 AM 43.6517 -70.4114 277° West 168 193 3,100 2,000 Climbing Boston Center
Wed 07:03:08 AM 43.6658 -70.5056 282° West 215 247 5,200 2,450 Climbing Boston Center
Wed 07:04:08 AM 43.6817 -70.5911 284° West 253 291 8,000 2,700 Climbing Boston Center
Wed 07:05:08 AM 43.6917 -70.6972 277° West 261 300 10,600 2,100 Climbing Boston Center
Wed 07:06:08 AM 43.6744 -70.8011 257° West 282 325 12,200 1,800 Climbing Boston Center
Wed 07:07:08 AM 43.6533 -70.9364 258° West 324 373 14,200 1,800 Climbing Boston Center
Wed 07:08:08 AM 43.6358 -71.0372 257° West 337 388 15,800 2,000 Climbing Boston Center
Wed 07:09:08 AM 43.6106 -71.1928 257° West 342 394 18,200 2,050 Climbing Boston Center
Wed 07:10:08 AM 43.5892 -71.3222 257° West 348 400 19,900 1,700 Climbing Boston Center
Wed 07:11:08 AM 43.5653 -71.4572 256° West 354 407 21,600 1,600 Climbing Boston Center
Wed 07:12:08 AM 43.5436 -71.5922 258° West 354 407 23,100 1,350 Climbing Boston Center
Wed 07:13:08 AM 43.5194 -71.7300 256° West 361 415 24,300 1,150 Climbing Boston Center
Wed 07:14:08 AM 43.4953 -71.8733 257° West 373 429 25,400 1,100 Climbing Boston Center
Wed 07:15:08 AM 43.4708 -72.0194 257° West 384 442 26,500 1,150 Climbing Boston Center
Wed 07:16:08 AM 43.4442 -72.1656 256° West 389 448 27,700 1,150 Climbing Boston Center
Wed 07:17:08 AM 43.4194 -72.3144 257° West 395 455 28,800 1,100 Climbing Boston Center
Wed 07:18:08 AM 43.3925 -72.4600 256° West 395 455 29,900 1,100 Climbing Boston Center
Wed 07:19:08 AM 43.3861 -72.5914 266° West 395 455 31,000 1,100 Climbing Boston Center
Wed 07:20:08 AM 43.3775 -72.7372 265° West 390 449 32,100 1,100 Climbing Boston Center
Wed 07:21:08 AM 43.3708 -72.8769 266° West 385 443 33,200 900 Climbing Boston Center
Wed 07:22:08 AM 43.3658 -73.0169 267° West 385 443 33,900 850 Climbing Boston Center
Wed 07:23:08 AM 43.3589 -73.1569 266° West 385 443 34,900 1,000 Climbing Boston Center
Wed 07:24:08 AM 43.3497 -73.2939 265° West 380 437 35,900 550 Climbing Boston Center
Wed 07:25:08 AM 43.3172 -73.4389 253° West 375 432 36,000 50 Climbing Boston Center
Wed 07:26:08 AM 43.2475 -73.5403 227° Southwest 369 425 36,000  Level Boston Center
Wed 07:27:08 AM 43.1589 -73.6497 222° Southwest 405 466 36,000  Level Boston Center
Wed 07:28:08 AM 43.1056 -73.7539 235° Southwest 417 480 36,000  Level Boston Center
Wed 07:29:08 AM 43.0994 -73.9186 267° West 374 430 36,000  Level Boston Center
Wed 07:30:08 AM 43.1039 -74.0553 273° West 358 412 36,000  Level Boston Center
Wed 07:31:08 AM 43.1103 -74.1892 274° West 358 412 36,000  Level Boston Center
Wed 07:32:08 AM 43.1142 -74.3231 272° West 358 412 36,000  Level Boston Center
Wed 07:33:08 AM 43.1183 -74.4569 272° West 358 412 36,000  Level Boston Center
Wed 07:34:08 AM 43.1242 -74.5936 273° West 363 418 36,000  Level Boston Center
Wed 07:35:08 AM 43.1278 -74.7275 272° West 363 418 36,000  Level Boston Center
Wed 07:36:08 AM 43.1311 -74.8642 272° West 363 418 36,000  Level Boston Center
Wed 07:37:08 AM 43.1344 -75.0008 272° West 368 423 36,000  Level Boston Center
Wed 07:38:08 AM 43.1356 -75.1317 271° West 363 418 36,000  Level Boston Center
Wed 07:39:08 AM 43.1406 -75.2686 273° West 363 418 36,000  Level Boston Center
Wed 07:40:08 AM 43.1433 -75.4053 272° West 363 418 36,000  Level Boston Center
Wed 07:41:08 AM 43.1481 -75.5394 273° West 363 418 36,000  Level Boston Center
Wed 07:42:08 AM 43.1506 -75.6761 271° West 363 418 36,000  Level Boston Center
Wed 07:43:55 AM 43.1333 -75.9167 264° West 360 414 36,000  Level Toronto Center
Wed 07:44:55 AM 43.1333 -76.0167 270° West 360 414 36,000  Level Toronto Center
Wed 07:45:55 AM 43.1500 -76.1667 279° West 360 414 36,000  Level Toronto Center
Wed 07:46:55 AM 43.1500 -76.3000 270° West 360 414 36,000  Level Toronto Center
Wed 07:47:55 AM 43.1500 -76.4333 270° West 350 403 36,000  Level Toronto Center
Wed 07:48:55 AM 43.1500 -76.5667 270° West 350 403 36,000  Level Toronto Center
Wed 07:49:55 AM 43.1500 -76.7000 270° West 350 403 36,000  Level Toronto Center
Wed 07:50:55 AM 43.1500 -76.8167 270° West 350 403 36,000  Level Toronto Center
Wed 07:51:55 AM 43.1500 -76.9667 270° West 350 403 36,000  Level Toronto Center
Wed 07:52:55 AM 43.1500 -77.1000 270° West 350 403 36,000  Level Toronto Center
Wed 07:53:55 AM 43.1333 -77.2333 260° West 350 403 36,000  Level Toronto Center
Wed 07:54:55 AM 43.1333 -77.3667 270° West 350 403 36,000  Level Toronto Center
Wed 07:55:55 AM 43.1500 -77.5000 280° West 350 403 36,000  Level Toronto Center
Wed 07:56:55 AM 43.1500 -77.6500 270° West 350 403 36,000  Level Toronto Center
Wed 07:57:55 AM 43.1333 -77.7667 259° West 350 403 36,000  Level Toronto Center
Wed 07:58:55 AM 43.1333 -77.9000 270° West 350 403 36,000  Level Toronto Center
Wed 07:59:55 AM 43.1333 -78.0333 270° West 360 414 36,000  Level Toronto Center
Wed 08:00:55 AM 43.1333 -78.1667 270° West 360 414 36,000  Level Toronto Center
Wed 08:01:55 AM 43.1167 -78.3167 261° West 360 414 36,000  Level Toronto Center
Wed 08:02:55 AM 43.1167 -78.4500 270° West 360 414 36,000  Level Toronto Center
Wed 08:03:55 AM 43.1333 -78.5833 280° West 360 414 36,000  Level Toronto Center
Wed 08:04:55 AM 43.1333 -78.7167 270° West 360 414 36,000  Level Toronto Center
Wed 08:05:55 AM 43.1167 -78.8500 260° West 370 426 36,000  Level Toronto Center
Wed 08:06:55 AM 43.1167 -79.0000 270° West 370 426 36,000  Level Toronto Center
Wed 08:07:55 AM 43.1167 -79.1500 270° West 370 426 36,000  Level Toronto Center
Wed 08:08:55 AM 43.1000 -79.2833 260° West 380 437 36,000  Level Toronto Center
Wed 08:09:55 AM 43.1000 -79.4333 270° West 380 437 36,000  Level Toronto Center
Wed 08:10:55 AM 43.1000 -79.5667 270° West 380 437 36,000  Level Toronto Center
Wed 08:11:55 AM 43.0833 -79.7167 261° West 380 437 36,000  Level Toronto Center
Wed 08:12:55 AM 43.0833 -79.8667 270° West 380 437 36,000  Level Toronto Center
Wed 08:13:55 AM 43.0833 -80.0000 270° West 380 437 36,000  Level Toronto Center
Wed 08:14:55 AM 43.0667 -80.1500 261° West 380 437 36,000  Level Toronto Center
Wed 08:15:55 AM 43.0667 -80.3000 270° West 380 437 36,000  Level Toronto Center
Wed 08:16:55 AM 43.0667 -80.4333 270° West 380 437 36,000  Level Toronto Center
Wed 08:17:55 AM 43.0500 -80.5833 261° West 380 437 36,000  Level Toronto Center
Wed 08:18:55 AM 43.0500 -80.7333 270° West 380 437 36,000  Level Toronto Center
Wed 08:19:55 AM 43.0333 -80.8667 260° West 380 437 36,000  Level Toronto Center
Wed 08:20:55 AM 43.0167 -81.0000 260° West 380 437 36,000  Level Toronto Center
Wed 08:21:55 AM 43.0167 -81.1333 270° West 370 426 36,000  Level Toronto Center
Wed 08:22:55 AM 43.0167 -81.3000 270° West 370 426 36,000  Level Toronto Center
Wed 08:23:55 AM 43.0167 -81.4333 270° West 370 426 36,000  Level Toronto Center
Wed 08:24:55 AM 43.0167 -81.5667 270° West 370 426 36,000  Level Toronto Center
Wed 08:25:55 AM 43.0167 -81.7000 270° West 370 426 36,000  Level Toronto Center
Wed 08:26:55 AM 43.0167 -81.8500 270° West 370 426 36,000  Level Toronto Center
Wed 08:27:55 AM 43.0000 -81.9833 260° West 370 426 36,000  Level Toronto Center
Wed 08:28:55 AM 43.0000 -82.1333 270° West 370 426 36,000  Level Toronto Center
Wed 08:29:55 AM 43.0000 -82.2833 270° West 370 426 36,000  Level Toronto Center
Wed 08:30:55 AM 43.0000 -82.3833 270° West 370 426 36,000  Level Toronto Center
Wed 08:31:55 AM 43.0000 -82.5500 270° West 360 414 36,000  Level Toronto Center
Wed 08:32:55 AM 42.9833 -82.6667 259° West 350 403 36,000  Level Toronto Center
Wed 08:33:55 AM 42.9833 -82.8000 270° West 340 391 36,000  Level Toronto Center
Wed 08:34:55 AM 42.9833 -82.9333 270° West 340 391 36,000  Level Toronto Center
Wed 08:35:55 AM 42.9833 -83.0667 270° West 350 403 36,000  Level Toronto Center
Wed 08:36:55 AM 42.9833 -83.1833 270° West 350 403 36,000  Level Toronto Center
Wed 08:37:55 AM 42.9667 -83.3167 260° West 350 403 36,000 -300 Level Toronto Center
Wed 08:38:55 AM 42.9667 -83.4667 270° West 360 414 35,400 -806 Descending Toronto Center
Wed 08:40:09 AM 42.9703 -83.6250 272° West 354 407 34,200 -940 Descending Cleveland Center
Wed 08:41:09 AM 42.9644 -83.7608 267° West 360 414 33,300 -950 Descending Cleveland Center
Wed 08:42:09 AM 42.9522 -83.8994 263° West 366 421 32,300 -650 Descending Cleveland Center
Wed 08:43:09 AM 42.9378 -84.0375 262° West 371 427 32,000 -150 Descending Cleveland Center
Wed 08:44:09 AM 42.9231 -84.1786 262° West 371 427 32,000  Level Cleveland Center
Wed 08:45:09 AM 42.9083 -84.3194 262° West 371 427 32,000  Level Cleveland Center
Wed 08:46:24 AM 42.8931 -84.4928 263° West 376 433 32,000  Level Chicago Center
Wed 08:47:26 AM 42.8789 -84.6339 262° West 377 434 32,000  Level Chicago Center
Wed 08:48:27 AM 42.8642 -84.7736 262° West 375 432 32,000  Level Chicago Center
Wed 08:49:29 AM 42.8494 -84.9133 262° West 375 432 32,000  Level Chicago Center
Wed 08:50:31 AM 42.8314 -85.0833 262° West 377 434 32,000  Level Chicago Center
Wed 08:51:33 AM 42.8161 -85.2272 262° West 381 438 32,000  Level Chicago Center
Wed 08:52:35 AM 42.8003 -85.3711 262° West 384 442 32,000 -194 Level Chicago Center
Wed 08:53:37 AM 42.7836 -85.5150 261° West 384 442 31,600 -1,258 Descending Chicago Center
Wed 08:54:39 AM 42.7575 -85.6564 256° West 384 442 29,400 -2,195 Descending Chicago Center
Wed 08:55:40 AM 42.7328 -85.7917 256° West 374 430 27,100 -2,195 Descending Chicago Center
Wed 08:56:42 AM 42.7089 -85.9242 256° West 363 418 24,900 -2,032 Descending Chicago Center
Wed 08:57:44 AM 42.6856 -86.0539 256° West 355 409 22,900 -2,129 Descending Chicago Center
Wed 08:58:46 AM 42.6586 -86.2014 256° West 337 388 20,500 -1,403 Descending Chicago Center
Wed 08:59:48 AM 42.6367 -86.3169 256° West 321 369 20,000 -240 Descending Chicago Center
Wed 09:00:51 AM 42.6147 -86.4292 255° West 309 356 20,000 -672 Level Chicago Center
Wed 09:01:53 AM 42.5958 -86.5353 256° West 292 336 18,600 -1,463 Descending Chicago Center
Wed 09:02:54 AM 42.5767 -86.6317 255° West 269 310 17,000 -1,512 Descending Chicago Center
Wed 09:03:56 AM 42.5606 -86.7278 257° West 263 303 15,500 -1,597 Descending Chicago Center
Wed 09:04:58 AM 42.5306 -86.8350 249° West 256 295 13,700 -1,597 Descending Chicago Center
Wed 09:06:00 AM 42.5058 -86.9244 249° West 255 293 12,200 -1,403 Descending Chicago Center
Wed 09:07:02 AM 42.4819 -87.0147 250° West 255 293 10,800 -1,073 Descending Chicago Center
Wed 09:08:03 AM 42.4569 -87.0992 248° West 243 280 10,000 -341 Descending Chicago Center
Wed 09:09:05 AM 42.4336 -87.1861 250° West 246 283 10,100 -290 Climbing Chicago Center
Wed 09:10:07 AM 42.4106 -87.2725 250° West 247 284 9,400 -532 Descending Chicago Center
Wed 09:11:09 AM 42.3858 -87.3567 248° West 243 280 9,000 -194 Descending Chicago Center
Wed 09:12:11 AM 42.2994 -87.3589 181° South 295 339 9,000 -435 Level Chicago Center
Wed 09:13:13 AM 42.2036 -87.3769 188° South 289 333 8,100 -919 Descending Chicago Center
Wed 09:14:15 AM 42.1333 -87.4114 200° South 270 311 7,100 -973 Descending Chicago Center
Wed 09:15:04 AM 42.0833 -87.4500 210° Southwest 270 311 6,300 -1,049 Descending Chicago TRACON
Wed 09:15:58 AM 42.0333 -87.5000 217° Southwest 259 298 5,300 -684 Descending Chicago TRACON
Wed 09:16:58 AM 41.9833 -87.5833 231° Southwest 252 290 5,000 -667 Descending Chicago TRACON
Wed 09:18:04 AM 41.9833 -87.6667 270° West 217 250 3,900 -1,100 Descending Chicago TRACON
Wed 09:18:58 AM 41.9833 -87.7500 270° West 207 238 2,800 -1,000 Descending Chicago TRACON
Wed 09:20:04 AM 41.9833 -87.8167 270° West 146 168 1,900 -762 Descending Chicago TRACON
Wed 09:21:04 AM 41.9833 -87.8500 270° West 126 145 1,200 -700 Descending Chicago TRACON
Wed 09:23:00 AM 41.9667 -87.9000 217° Southwest  Level FlightAware Approximate

Login

Don't have an account? Register now (free) for customized features, flight alerts, and more!